sensor_id;sensor_type;location;lat;lon;timestamp;P1;durP1;ratioP1;P2;durP2;ratioP2
14235;SDS011;7202;50.718;7.072;2023-04-23T00:00:08;17.95;;;14.70;;
14235;SDS011;7202;50.718;7.072;2023-04-23T00:02:39;16.80;;;14.90;;
14235;SDS011;7202;50.718;7.072;2023-04-23T00:05:12;16.90;;;14.65;;
14235;SDS011;7202;50.718;7.072;2023-04-23T00:07:42;15.10;;;13.45;;
14235;SDS011;7202;50.718;7.072;2023-04-23T00:10:12;17.08;;;14.40;;
14235;SDS011;7202;50.718;7.072;2023-04-23T00:12:40;17.42;;;14.55;;
14235;SDS011;7202;50.718;7.072;2023-04-23T00:15:12;17.90;;;14.60;;
14235;SDS011;7202;50.718;7.072;2023-04-23T00:17:41;19.48;;;14.75;;
14235;SDS011;7202;50.718;7.072;2023-04-23T00:20:10;18.25;;;14.68;;
14235;SDS011;7202;50.718;7.072;2023-04-23T00:22:38;19.13;;;15.32;;
14235;SDS011;7202;50.718;7.072;2023-04-23T00:25:07;18.10;;;16.13;;
14235;SDS011;7202;50.718;7.072;2023-04-23T00:27:36;21.88;;;15.35;;
14235;SDS011;7202;50.718;7.072;2023-04-23T00:30:05;18.42;;;14.50;;
14235;SDS011;7202;50.718;7.072;2023-04-23T00:32:36;18.30;;;14.73;;
14235;SDS011;7202;50.718;7.072;2023-04-23T00:35:05;18.58;;;14.68;;
14235;SDS011;7202;50.718;7.072;2023-04-23T00:37:34;16.73;;;14.55;;
14235;SDS011;7202;50.718;7.072;2023-04-23T00:40:03;19.42;;;15.50;;
14235;SDS011;7202;50.718;7.072;2023-04-23T00:42:33;19.55;;;15.65;;
14235;SDS011;7202;50.718;7.072;2023-04-23T00:45:03;17.67;;;15.07;;
14235;SDS011;7202;50.718;7.072;2023-04-23T00:47:35;17.23;;;14.48;;
14235;SDS011;7202;50.718;7.072;2023-04-23T00:50:05;17.30;;;14.88;;
14235;SDS011;7202;50.718;7.072;2023-04-23T00:52:36;19.13;;;15.25;;
14235;SDS011;7202;50.718;7.072;2023-04-23T00:55:07;16.52;;;14.38;;
14235;SDS011;7202;50.718;7.072;2023-04-23T00:57:35;18.10;;;15.07;;
14235;SDS011;7202;50.718;7.072;2023-04-23T01:00:05;19.23;;;15.32;;
14235;SDS011;7202;50.718;7.072;2023-04-23T01:02:36;18.13;;;14.98;;
14235;SDS011;7202;50.718;7.072;2023-04-23T01:05:05;19.10;;;15.20;;
14235;SDS011;7202;50.718;7.072;2023-04-23T01:07:36;17.13;;;14.93;;
14235;SDS011;7202;50.718;7.072;2023-04-23T01:10:05;18.85;;;15.55;;
14235;SDS011;7202;50.718;7.072;2023-04-23T01:12:35;19.80;;;16.23;;
14235;SDS011;7202;50.718;7.072;2023-04-23T01:15:04;19.08;;;16.00;;
14235;SDS011;7202;50.718;7.072;2023-04-23T01:17:33;21.15;;;15.75;;
14235;SDS011;7202;50.718;7.072;2023-04-23T01:20:04;16.98;;;14.90;;
14235;SDS011;7202;50.718;7.072;2023-04-23T01:22:37;17.70;;;15.63;;
14235;SDS011;7202;50.718;7.072;2023-04-23T01:25:06;19.38;;;14.93;;
14235;SDS011;7202;50.718;7.072;2023-04-23T01:27:36;20.77;;;16.65;;
14235;SDS011;7202;50.718;7.072;2023-04-23T01:30:06;16.60;;;14.45;;
14235;SDS011;7202;50.718;7.072;2023-04-23T01:32:35;17.55;;;15.02;;
14235;SDS011;7202;50.718;7.072;2023-04-23T01:35:05;21.80;;;16.10;;
14235;SDS011;7202;50.718;7.072;2023-04-23T01:37:36;17.83;;;15.48;;
14235;SDS011;7202;50.718;7.072;2023-04-23T01:40:06;20.75;;;15.88;;
14235;SDS011;7202;50.718;7.072;2023-04-23T01:42:36;19.30;;;16.27;;
14235;SDS011;7202;50.718;7.072;2023-04-23T01:45:06;17.90;;;15.15;;
14235;SDS011;7202;50.718;7.072;2023-04-23T01:47:36;18.90;;;15.63;;
14235;SDS011;7202;50.718;7.072;2023-04-23T01:50:05;17.92;;;15.18;;
14235;SDS011;7202;50.718;7.072;2023-04-23T01:52:40;18.55;;;15.10;;
14235;SDS011;7202;50.718;7.072;2023-04-23T01:55:10;16.67;;;14.35;;
14235;SDS011;7202;50.718;7.072;2023-04-23T01:57:40;18.88;;;14.90;;
14235;SDS011;7202;50.718;7.072;2023-04-23T02:00:09;17.33;;;14.50;;
14235;SDS011;7202;50.718;7.072;2023-04-23T02:02:40;18.30;;;14.88;;
14235;SDS011;7202;50.718;7.072;2023-04-23T02:05:11;19.75;;;15.20;;
14235;SDS011;7202;50.718;7.072;2023-04-23T02:07:42;18.95;;;15.57;;
14235;SDS011;7202;50.718;7.072;2023-04-23T02:10:13;19.00;;;16.23;;
14235;SDS011;7202;50.718;7.072;2023-04-23T02:12:42;20.35;;;15.68;;
14235;SDS011;7202;50.718;7.072;2023-04-23T02:15:12;21.60;;;17.00;;
14235;SDS011;7202;50.718;7.072;2023-04-23T02:17:41;19.40;;;16.58;;
14235;SDS011;7202;50.718;7.072;2023-04-23T02:20:10;19.77;;;15.98;;
14235;SDS011;7202;50.718;7.072;2023-04-23T02:22:40;19.77;;;16.58;;
14235;SDS011;7202;50.718;7.072;2023-04-23T02:25:10;19.95;;;16.38;;
14235;SDS011;7202;50.718;7.072;2023-04-23T02:27:41;21.08;;;16.63;;
14235;SDS011;7202;50.718;7.072;2023-04-23T02:30:10;20.98;;;16.95;;
14235;SDS011;7202;50.718;7.072;2023-04-23T02:32:39;19.55;;;16.42;;
14235;SDS011;7202;50.718;7.072;2023-04-23T02:35:09;23.65;;;17.00;;
14235;SDS011;7202;50.718;7.072;2023-04-23T02:37:39;19.83;;;16.05;;
14235;SDS011;7202;50.718;7.072;2023-04-23T02:40:10;20.40;;;16.60;;
14235;SDS011;7202;50.718;7.072;2023-04-23T02:42:39;19.92;;;15.77;;
14235;SDS011;7202;50.718;7.072;2023-04-23T02:45:10;21.02;;;16.05;;
14235;SDS011;7202;50.718;7.072;2023-04-23T02:47:39;20.33;;;16.65;;
14235;SDS011;7202;50.718;7.072;2023-04-23T02:50:07;18.88;;;15.45;;
14235;SDS011;7202;50.718;7.072;2023-04-23T02:52:37;17.88;;;15.43;;
14235;SDS011;7202;50.718;7.072;2023-04-23T02:55:07;19.15;;;16.33;;
14235;SDS011;7202;50.718;7.072;2023-04-23T02:57:36;19.00;;;15.40;;
14235;SDS011;7202;50.718;7.072;2023-04-23T03:00:06;18.25;;;15.90;;
14235;SDS011;7202;50.718;7.072;2023-04-23T03:02:40;20.42;;;15.35;;
14235;SDS011;7202;50.718;7.072;2023-04-23T03:05:09;21.15;;;15.73;;
14235;SDS011;7202;50.718;7.072;2023-04-23T03:07:38;16.63;;;14.07;;
14235;SDS011;7202;50.718;7.072;2023-04-23T03:10:09;16.08;;;13.57;;
14235;SDS011;7202;50.718;7.072;2023-04-23T03:12:38;17.80;;;14.45;;
14235;SDS011;7202;50.718;7.072;2023-04-23T03:15:08;19.15;;;15.45;;
14235;SDS011;7202;50.718;7.072;2023-04-23T03:17:37;21.67;;;15.13;;
14235;SDS011;7202;50.718;7.072;2023-04-23T03:20:07;19.48;;;14.00;;
14235;SDS011;7202;50.718;7.072;2023-04-23T03:22:38;15.88;;;11.55;;
14235;SDS011;7202;50.718;7.072;2023-04-23T03:25:09;16.13;;;10.88;;
14235;SDS011;7202;50.718;7.072;2023-04-23T03:27:38;13.25;;;11.30;;
14235;SDS011;7202;50.718;7.072;2023-04-23T03:30:07;12.35;;;10.43;;
14235;SDS011;7202;50.718;7.072;2023-04-23T03:32:37;10.20;;;9.10;;
14235;SDS011;7202;50.718;7.072;2023-04-23T03:35:06;10.85;;;9.48;;
14235;SDS011;7202;50.718;7.072;2023-04-23T03:37:39;13.15;;;9.50;;
14235;SDS011;7202;50.718;7.072;2023-04-23T03:40:09;10.48;;;9.38;;
14235;SDS011;7202;50.718;7.072;2023-04-23T03:42:40;11.48;;;9.88;;
14235;SDS011;7202;50.718;7.072;2023-04-23T03:45:12;12.93;;;10.20;;
14235;SDS011;7202;50.718;7.072;2023-04-23T03:47:42;12.43;;;10.05;;
14235;SDS011;7202;50.718;7.072;2023-04-23T03:50:11;10.75;;;9.65;;
14235;SDS011;7202;50.718;7.072;2023-04-23T03:52:42;12.50;;;9.75;;
14235;SDS011;7202;50.718;7.072;2023-04-23T03:55:20;11.18;;;9.52;;
14235;SDS011;7202;50.718;7.072;2023-04-23T03:57:49;12.43;;;10.40;;
14235;SDS011;7202;50.718;7.072;2023-04-23T04:00:21;14.00;;;9.95;;
14235;SDS011;7202;50.718;7.072;2023-04-23T04:02:50;14.45;;;10.77;;
14235;SDS011;7202;50.718;7.072;2023-04-23T04:05:21;11.15;;;9.48;;
14235;SDS011;7202;50.718;7.072;2023-04-23T04:07:52;10.88;;;9.68;;
14235;SDS011;7202;50.718;7.072;2023-04-23T04:10:24;12.48;;;10.52;;
14235;SDS011;7202;50.718;7.072;2023-04-23T04:12:53;12.60;;;10.00;;
14235;SDS011;7202;50.718;7.072;2023-04-23T04:15:22;10.02;;;8.75;;
14235;SDS011;7202;50.718;7.072;2023-04-23T04:17:51;11.05;;;9.88;;
14235;SDS011;7202;50.718;7.072;2023-04-23T04:20:19;12.10;;;10.35;;
14235;SDS011;7202;50.718;7.072;2023-04-23T04:22:48;11.23;;;9.52;;
14235;SDS011;7202;50.718;7.072;2023-04-23T04:25:16;12.50;;;9.85;;
14235;SDS011;7202;50.718;7.072;2023-04-23T04:27:46;12.23;;;10.48;;
14235;SDS011;7202;50.718;7.072;2023-04-23T04:30:15;12.75;;;9.82;;
14235;SDS011;7202;50.718;7.072;2023-04-23T04:32:44;10.85;;;9.73;;
14235;SDS011;7202;50.718;7.072;2023-04-23T04:35:13;11.65;;;9.10;;
14235;SDS011;7202;50.718;7.072;2023-04-23T04:37:42;13.55;;;10.35;;
14235;SDS011;7202;50.718;7.072;2023-04-23T04:40:11;10.50;;;8.93;;
14235;SDS011;7202;50.718;7.072;2023-04-23T04:42:41;13.57;;;9.40;;
14235;SDS011;7202;50.718;7.072;2023-04-23T04:45:11;10.50;;;9.40;;
14235;SDS011;7202;50.718;7.072;2023-04-23T04:47:40;10.45;;;8.98;;
14235;SDS011;7202;50.718;7.072;2023-04-23T04:50:09;10.38;;;9.27;;
14235;SDS011;7202;50.718;7.072;2023-04-23T04:52:38;11.70;;;8.65;;
14235;SDS011;7202;50.718;7.072;2023-04-23T04:55:07;10.15;;;8.20;;
14235;SDS011;7202;50.718;7.072;2023-04-23T04:57:36;10.02;;;8.88;;
14235;SDS011;7202;50.718;7.072;2023-04-23T05:00:19;9.95;;;8.70;;
14235;SDS011;7202;50.718;7.072;2023-04-23T05:02:49;10.02;;;8.70;;
14235;SDS011;7202;50.718;7.072;2023-04-23T05:05:19;9.15;;;7.88;;
14235;SDS011;7202;50.718;7.072;2023-04-23T05:07:48;10.07;;;8.57;;
14235;SDS011;7202;50.718;7.072;2023-04-23T05:10:17;9.88;;;8.52;;
14235;SDS011;7202;50.718;7.072;2023-04-23T05:12:46;9.68;;;8.68;;
14235;SDS011;7202;50.718;7.072;2023-04-23T05:15:19;9.73;;;8.55;;
14235;SDS011;7202;50.718;7.072;2023-04-23T05:17:47;13.52;;;9.40;;
14235;SDS011;7202;50.718;7.072;2023-04-23T05:20:19;11.55;;;8.52;;
14235;SDS011;7202;50.718;7.072;2023-04-23T05:22:48;8.80;;;7.90;;
14235;SDS011;7202;50.718;7.072;2023-04-23T05:25:17;9.43;;;8.35;;
14235;SDS011;7202;50.718;7.072;2023-04-23T05:27:45;10.85;;;8.88;;
14235;SDS011;7202;50.718;7.072;2023-04-23T05:30:14;8.95;;;8.05;;
14235;SDS011;7202;50.718;7.072;2023-04-23T05:32:44;9.48;;;8.48;;
14235;SDS011;7202;50.718;7.072;2023-04-23T05:35:13;8.55;;;7.65;;
14235;SDS011;7202;50.718;7.072;2023-04-23T05:37:42;9.88;;;7.45;;
14235;SDS011;7202;50.718;7.072;2023-04-23T05:40:10;10.40;;;7.90;;
14235;SDS011;7202;50.718;7.072;2023-04-23T05:42:39;9.45;;;8.32;;
14235;SDS011;7202;50.718;7.072;2023-04-23T05:45:08;8.32;;;7.47;;
14235;SDS011;7202;50.718;7.072;2023-04-23T05:47:37;7.55;;;6.80;;
14235;SDS011;7202;50.718;7.072;2023-04-23T05:50:08;7.60;;;6.78;;
14235;SDS011;7202;50.718;7.072;2023-04-23T05:52:38;7.95;;;6.68;;
14235;SDS011;7202;50.718;7.072;2023-04-23T05:55:07;8.27;;;6.75;;
14235;SDS011;7202;50.718;7.072;2023-04-23T05:57:36;6.80;;;6.10;;
14235;SDS011;7202;50.718;7.072;2023-04-23T06:00:06;7.82;;;6.43;;
14235;SDS011;7202;50.718;7.072;2023-04-23T06:02:40;7.32;;;6.63;;
14235;SDS011;7202;50.718;7.072;2023-04-23T06:05:11;7.57;;;6.78;;
14235;SDS011;7202;50.718;7.072;2023-04-23T06:07:40;6.57;;;5.97;;
14235;SDS011;7202;50.718;7.072;2023-04-23T06:10:09;7.03;;;6.32;;
14235;SDS011;7202;50.718;7.072;2023-04-23T06:12:38;8.70;;;6.10;;
14235;SDS011;7202;50.718;7.072;2023-04-23T06:15:08;6.63;;;5.93;;
14235;SDS011;7202;50.718;7.072;2023-04-23T06:17:37;7.53;;;6.60;;
14235;SDS011;7202;50.718;7.072;2023-04-23T06:20:07;6.70;;;5.85;;
14235;SDS011;7202;50.718;7.072;2023-04-23T06:22:39;6.07;;;5.38;;
14235;SDS011;7202;50.718;7.072;2023-04-23T06:25:08;7.00;;;5.63;;
14235;SDS011;7202;50.718;7.072;2023-04-23T06:27:36;6.82;;;5.22;;
14235;SDS011;7202;50.718;7.072;2023-04-23T06:30:12;7.82;;;5.93;;
14235;SDS011;7202;50.718;7.072;2023-04-23T06:32:41;6.05;;;5.32;;
14235;SDS011;7202;50.718;7.072;2023-04-23T06:35:09;7.60;;;5.30;;
14235;SDS011;7202;50.718;7.072;2023-04-23T06:37:39;6.70;;;4.78;;
14235;SDS011;7202;50.718;7.072;2023-04-23T06:40:08;6.72;;;4.90;;
14235;SDS011;7202;50.718;7.072;2023-04-23T06:42:37;5.50;;;4.65;;
14235;SDS011;7202;50.718;7.072;2023-04-23T06:45:18;6.63;;;4.88;;
14235;SDS011;7202;50.718;7.072;2023-04-23T06:47:47;5.03;;;4.47;;
14235;SDS011;7202;50.718;7.072;2023-04-23T06:50:16;5.63;;;4.25;;
14235;SDS011;7202;50.718;7.072;2023-04-23T06:52:46;5.75;;;4.80;;
14235;SDS011;7202;50.718;7.072;2023-04-23T06:55:15;5.07;;;4.05;;
14235;SDS011;7202;50.718;7.072;2023-04-23T06:57:44;4.88;;;4.38;;
14235;SDS011;7202;50.718;7.072;2023-04-23T07:00:13;4.85;;;3.92;;
14235;SDS011;7202;50.718;7.072;2023-04-23T07:02:42;4.25;;;3.83;;
14235;SDS011;7202;50.718;7.072;2023-04-23T07:05:12;5.60;;;3.33;;
14235;SDS011;7202;50.718;7.072;2023-04-23T07:07:41;5.28;;;3.42;;
14235;SDS011;7202;50.718;7.072;2023-04-23T07:10:11;4.28;;;3.78;;
14235;SDS011;7202;50.718;7.072;2023-04-23T07:12:44;5.20;;;3.65;;
14235;SDS011;7202;50.718;7.072;2023-04-23T07:15:12;4.00;;;3.58;;
14235;SDS011;7202;50.718;7.072;2023-04-23T07:17:41;5.25;;;3.58;;
14235;SDS011;7202;50.718;7.072;2023-04-23T07:20:10;3.83;;;3.17;;
14235;SDS011;7202;50.718;7.072;2023-04-23T07:22:39;4.40;;;3.55;;
14235;SDS011;7202;50.718;7.072;2023-04-23T07:25:07;5.70;;;3.75;;
14235;SDS011;7202;50.718;7.072;2023-04-23T07:27:37;6.95;;;3.70;;
14235;SDS011;7202;50.718;7.072;2023-04-23T07:30:06;5.72;;;3.10;;
14235;SDS011;7202;50.718;7.072;2023-04-23T07:32:36;6.03;;;3.30;;
14235;SDS011;7202;50.718;7.072;2023-04-23T07:35:05;4.00;;;3.20;;
14235;SDS011;7202;50.718;7.072;2023-04-23T07:37:35;4.00;;;3.60;;
14235;SDS011;7202;50.718;7.072;2023-04-23T07:40:04;6.57;;;3.40;;
14235;SDS011;7202;50.718;7.072;2023-04-23T07:42:35;5.55;;;3.22;;
14235;SDS011;7202;50.718;7.072;2023-04-23T07:45:05;3.83;;;3.13;;
14235;SDS011;7202;50.718;7.072;2023-04-23T07:47:34;5.00;;;3.45;;
14235;SDS011;7202;50.718;7.072;2023-04-23T07:50:04;4.10;;;3.25;;
14235;SDS011;7202;50.718;7.072;2023-04-23T07:52:33;3.88;;;3.42;;
14235;SDS011;7202;50.718;7.072;2023-04-23T07:55:02;4.65;;;3.45;;
14235;SDS011;7202;50.718;7.072;2023-04-23T07:57:31;3.72;;;3.33;;
14235;SDS011;7202;50.718;7.072;2023-04-23T07:59:59;5.80;;;3.45;;
14235;SDS011;7202;50.718;7.072;2023-04-23T08:02:39;4.38;;;3.53;;
14235;SDS011;7202;50.718;7.072;2023-04-23T08:05:08;3.45;;;3.13;;
14235;SDS011;7202;50.718;7.072;2023-04-23T08:07:37;4.18;;;3.10;;
14235;SDS011;7202;50.718;7.072;2023-04-23T08:10:06;3.28;;;2.88;;
14235;SDS011;7202;50.718;7.072;2023-04-23T08:12:35;3.35;;;3.00;;
14235;SDS011;7202;50.718;7.072;2023-04-23T08:15:04;4.03;;;3.30;;
14235;SDS011;7202;50.718;7.072;2023-04-23T08:17:39;3.58;;;3.05;;
14235;SDS011;7202;50.718;7.072;2023-04-23T08:20:08;4.90;;;3.20;;
14235;SDS011;7202;50.718;7.072;2023-04-23T08:22:37;4.25;;;3.17;;
14235;SDS011;7202;50.718;7.072;2023-04-23T08:25:06;3.13;;;2.80;;
14235;SDS011;7202;50.718;7.072;2023-04-23T08:27:36;4.75;;;2.83;;
14235;SDS011;7202;50.718;7.072;2023-04-23T08:30:05;6.70;;;2.95;;
14235;SDS011;7202;50.718;7.072;2023-04-23T08:32:34;3.30;;;2.45;;
14235;SDS011;7202;50.718;7.072;2023-04-23T08:35:04;8.15;;;2.70;;
14235;SDS011;7202;50.718;7.072;2023-04-23T08:37:33;3.03;;;2.50;;
14235;SDS011;7202;50.718;7.072;2023-04-23T08:40:02;6.00;;;2.80;;
14235;SDS011;7202;50.718;7.072;2023-04-23T08:42:36;3.63;;;2.60;;
14235;SDS011;7202;50.718;7.072;2023-04-23T08:45:08;4.03;;;3.10;;
14235;SDS011;7202;50.718;7.072;2023-04-23T08:47:38;3.55;;;2.97;;
14235;SDS011;7202;50.718;7.072;2023-04-23T08:50:11;3.58;;;2.42;;
14235;SDS011;7202;50.718;7.072;2023-04-23T08:52:41;5.28;;;2.80;;
14235;SDS011;7202;50.718;7.072;2023-04-23T08:55:13;3.88;;;2.10;;
14235;SDS011;7202;50.718;7.072;2023-04-23T08:57:44;3.75;;;2.28;;
14235;SDS011;7202;50.718;7.072;2023-04-23T09:00:14;4.15;;;2.20;;
14235;SDS011;7202;50.718;7.072;2023-04-23T09:02:45;3.03;;;2.13;;
14235;SDS011;7202;50.718;7.072;2023-04-23T09:05:16;2.45;;;2.03;;
14235;SDS011;7202;50.718;7.072;2023-04-23T09:07:45;5.13;;;2.05;;
14235;SDS011;7202;50.718;7.072;2023-04-23T09:10:14;3.47;;;1.88;;
14235;SDS011;7202;50.718;7.072;2023-04-23T09:12:44;4.65;;;1.73;;
14235;SDS011;7202;50.718;7.072;2023-04-23T09:15:14;4.07;;;1.95;;
14235;SDS011;7202;50.718;7.072;2023-04-23T09:17:44;3.25;;;2.05;;
14235;SDS011;7202;50.718;7.072;2023-04-23T09:20:14;2.42;;;1.70;;
14235;SDS011;7202;50.718;7.072;2023-04-23T09:22:45;2.53;;;1.88;;
14235;SDS011;7202;50.718;7.072;2023-04-23T09:25:15;3.33;;;1.90;;
14235;SDS011;7202;50.718;7.072;2023-04-23T09:27:45;2.47;;;1.23;;
14235;SDS011;7202;50.718;7.072;2023-04-23T09:30:16;3.85;;;1.55;;
14235;SDS011;7202;50.718;7.072;2023-04-23T09:32:46;4.55;;;1.65;;
14235;SDS011;7202;50.718;7.072;2023-04-23T09:35:15;1.90;;;1.42;;
14235;SDS011;7202;50.718;7.072;2023-04-23T09:37:47;2.20;;;1.50;;
14235;SDS011;7202;50.718;7.072;2023-04-23T09:40:18;3.00;;;1.58;;
14235;SDS011;7202;50.718;7.072;2023-04-23T09:42:50;3.22;;;1.35;;
14235;SDS011;7202;50.718;7.072;2023-04-23T09:45:20;1.92;;;1.55;;
14235;SDS011;7202;50.718;7.072;2023-04-23T09:47:51;3.20;;;1.80;;
14235;SDS011;7202;50.718;7.072;2023-04-23T09:50:30;4.00;;;1.95;;
14235;SDS011;7202;50.718;7.072;2023-04-23T09:53:02;2.33;;;1.67;;
14235;SDS011;7202;50.718;7.072;2023-04-23T09:55:31;3.17;;;1.38;;
14235;SDS011;7202;50.718;7.072;2023-04-23T09:58:03;3.72;;;1.77;;
14235;SDS011;7202;50.718;7.072;2023-04-23T10:00:33;7.18;;;2.53;;
14235;SDS011;7202;50.718;7.072;2023-04-23T10:03:05;2.20;;;1.58;;
14235;SDS011;7202;50.718;7.072;2023-04-23T10:05:36;2.65;;;1.40;;
14235;SDS011;7202;50.718;7.072;2023-04-23T10:08:28;2.20;;;1.23;;
14235;SDS011;7202;50.718;7.072;2023-04-23T10:10:58;2.10;;;1.67;;
14235;SDS011;7202;50.718;7.072;2023-04-23T10:13:46;4.13;;;1.42;;
14235;SDS011;7202;50.718;7.072;2023-04-23T10:16:14;3.00;;;1.75;;
14235;SDS011;7202;50.718;7.072;2023-04-23T10:18:51;2.88;;;1.52;;
14235;SDS011;7202;50.718;7.072;2023-04-23T10:21:22;3.75;;;1.33;;
14235;SDS011;7202;50.718;7.072;2023-04-23T10:24:06;3.85;;;1.80;;
14235;SDS011;7202;50.718;7.072;2023-04-23T10:26:37;1.92;;;1.40;;
14235;SDS011;7202;50.718;7.072;2023-04-23T10:29:12;4.57;;;1.80;;
14235;SDS011;7202;50.718;7.072;2023-04-23T10:31:41;4.15;;;1.50;;
14235;SDS011;7202;50.718;7.072;2023-04-23T10:34:10;3.00;;;1.67;;
14235;SDS011;7202;50.718;7.072;2023-04-23T10:36:39;2.50;;;1.48;;
14235;SDS011;7202;50.718;7.072;2023-04-23T10:39:10;1.70;;;1.35;;
14235;SDS011;7202;50.718;7.072;2023-04-23T10:41:53;2.20;;;1.40;;
14235;SDS011;7202;50.718;7.072;2023-04-23T10:44:30;2.90;;;1.42;;
14235;SDS011;7202;50.718;7.072;2023-04-23T10:47:19;2.88;;;1.30;;
14235;SDS011;7202;50.718;7.072;2023-04-23T10:49:50;4.15;;;1.40;;
14235;SDS011;7202;50.718;7.072;2023-04-23T10:52:19;3.67;;;1.30;;
14235;SDS011;7202;50.718;7.072;2023-04-23T10:54:56;2.60;;;1.52;;
14235;SDS011;7202;50.718;7.072;2023-04-23T10:57:26;2.10;;;1.25;;
14235;SDS011;7202;50.718;7.072;2023-04-23T10:59:55;3.13;;;1.33;;
14235;SDS011;7202;50.718;7.072;2023-04-23T11:02:25;4.10;;;1.70;;
14235;SDS011;7202;50.718;7.072;2023-04-23T11:05:10;2.53;;;1.40;;
14235;SDS011;7202;50.718;7.072;2023-04-23T11:07:39;4.97;;;1.45;;
14235;SDS011;7202;50.718;7.072;2023-04-23T11:10:12;2.40;;;1.27;;
14235;SDS011;7202;50.718;7.072;2023-04-23T11:12:42;4.50;;;1.50;;
14235;SDS011;7202;50.718;7.072;2023-04-23T11:15:12;4.05;;;1.33;;
14235;SDS011;7202;50.718;7.072;2023-04-23T11:17:57;4.13;;;1.00;;
14235;SDS011;7202;50.718;7.072;2023-04-23T11:20:26;2.65;;;1.10;;
14235;SDS011;7202;50.718;7.072;2023-04-23T11:22:55;4.20;;;1.38;;
14235;SDS011;7202;50.718;7.072;2023-04-23T11:25:25;2.30;;;1.10;;
14235;SDS011;7202;50.718;7.072;2023-04-23T11:27:56;1.95;;;1.00;;
14235;SDS011;7202;50.718;7.072;2023-04-23T11:30:25;3.85;;;1.42;;
14235;SDS011;7202;50.718;7.072;2023-04-23T11:32:55;5.32;;;1.35;;
14235;SDS011;7202;50.718;7.072;2023-04-23T11:35:26;3.97;;;1.20;;
14235;SDS011;7202;50.718;7.072;2023-04-23T11:37:56;3.35;;;1.08;;
14235;SDS011;7202;50.718;7.072;2023-04-23T11:40:26;3.63;;;1.00;;
14235;SDS011;7202;50.718;7.072;2023-04-23T11:42:56;1.50;;;0.93;;
14235;SDS011;7202;50.718;7.072;2023-04-23T11:45:26;1.90;;;1.40;;
14235;SDS011;7202;50.718;7.072;2023-04-23T11:47:56;4.30;;;1.45;;
14235;SDS011;7202;50.718;7.072;2023-04-23T11:50:26;1.77;;;0.95;;
14235;SDS011;7202;50.718;7.072;2023-04-23T11:53:03;4.30;;;1.27;;
14235;SDS011;7202;50.718;7.072;2023-04-23T11:55:33;1.98;;;0.90;;
14235;SDS011;7202;50.718;7.072;2023-04-23T11:58:02;2.20;;;1.10;;
14235;SDS011;7202;50.718;7.072;2023-04-23T12:00:31;3.35;;;1.00;;
14235;SDS011;7202;50.718;7.072;2023-04-23T12:03:00;3.30;;;1.02;;
14235;SDS011;7202;50.718;7.072;2023-04-23T12:05:31;4.35;;;0.90;;
14235;SDS011;7202;50.718;7.072;2023-04-23T12:08:05;3.42;;;1.20;;
14235;SDS011;7202;50.718;7.072;2023-04-23T12:10:49;2.13;;;1.63;;
14235;SDS011;7202;50.718;7.072;2023-04-23T12:13:20;3.63;;;1.38;;
14235;SDS011;7202;50.718;7.072;2023-04-23T12:15:54;1.75;;;1.00;;
14235;SDS011;7202;50.718;7.072;2023-04-23T12:18:26;1.55;;;1.05;;
14235;SDS011;7202;50.718;7.072;2023-04-23T12:20:55;1.70;;;1.08;;
14235;SDS011;7202;50.718;7.072;2023-04-23T12:23:26;2.65;;;1.10;;
14235;SDS011;7202;50.718;7.072;2023-04-23T12:25:56;1.83;;;1.05;;
14235;SDS011;7202;50.718;7.072;2023-04-23T12:28:26;3.25;;;0.90;;
14235;SDS011;7202;50.718;7.072;2023-04-23T12:30:57;2.65;;;1.25;;
14235;SDS011;7202;50.718;7.072;2023-04-23T12:33:28;1.70;;;1.13;;
14235;SDS011;7202;50.718;7.072;2023-04-23T12:35:57;2.15;;;0.90;;
14235;SDS011;7202;50.718;7.072;2023-04-23T12:38:27;2.47;;;0.80;;
14235;SDS011;7202;50.718;7.072;2023-04-23T12:40:58;2.15;;;1.13;;
14235;SDS011;7202;50.718;7.072;2023-04-23T12:43:27;4.38;;;1.33;;
14235;SDS011;7202;50.718;7.072;2023-04-23T12:45:56;2.42;;;1.15;;
14235;SDS011;7202;50.718;7.072;2023-04-23T12:48:25;3.08;;;1.00;;
14235;SDS011;7202;50.718;7.072;2023-04-23T12:50:54;2.88;;;1.20;;
14235;SDS011;7202;50.718;7.072;2023-04-23T12:53:22;2.45;;;1.27;;
14235;SDS011;7202;50.718;7.072;2023-04-23T12:55:51;1.70;;;1.00;;
14235;SDS011;7202;50.718;7.072;2023-04-23T12:58:21;2.35;;;1.05;;
14235;SDS011;7202;50.718;7.072;2023-04-23T13:00:51;3.60;;;1.27;;
14235;SDS011;7202;50.718;7.072;2023-04-23T13:03:20;1.98;;;0.90;;
14235;SDS011;7202;50.718;7.072;2023-04-23T13:05:51;1.90;;;0.93;;
14235;SDS011;7202;50.718;7.072;2023-04-23T13:08:20;3.92;;;1.05;;
14235;SDS011;7202;50.718;7.072;2023-04-23T13:10:48;2.72;;;0.93;;
14235;SDS011;7202;50.718;7.072;2023-04-23T13:13:17;2.28;;;0.90;;
14235;SDS011;7202;50.718;7.072;2023-04-23T13:15:47;2.53;;;1.00;;
14235;SDS011;7202;50.718;7.072;2023-04-23T13:18:15;2.03;;;1.00;;
14235;SDS011;7202;50.718;7.072;2023-04-23T13:20:44;2.95;;;1.08;;
14235;SDS011;7202;50.718;7.072;2023-04-23T13:23:13;0.82;;;0.73;;
14235;SDS011;7202;50.718;7.072;2023-04-23T13:25:41;3.78;;;1.08;;
14235;SDS011;7202;50.718;7.072;2023-04-23T13:28:10;4.03;;;1.20;;
14235;SDS011;7202;50.718;7.072;2023-04-23T13:30:38;3.85;;;0.88;;
14235;SDS011;7202;50.718;7.072;2023-04-23T13:33:08;3.22;;;1.20;;
14235;SDS011;7202;50.718;7.072;2023-04-23T13:35:37;2.22;;;1.30;;
14235;SDS011;7202;50.718;7.072;2023-04-23T13:38:06;2.30;;;1.10;;
14235;SDS011;7202;50.718;7.072;2023-04-23T13:40:35;3.00;;;1.50;;
14235;SDS011;7202;50.718;7.072;2023-04-23T13:43:03;2.55;;;1.40;;
14235;SDS011;7202;50.718;7.072;2023-04-23T13:45:32;1.88;;;1.45;;
14235;SDS011;7202;50.718;7.072;2023-04-23T13:48:01;1.55;;;1.45;;
14235;SDS011;7202;50.718;7.072;2023-04-23T13:50:58;2.78;;;1.52;;
14235;SDS011;7202;50.718;7.072;2023-04-23T13:53:28;1.92;;;1.65;;
14235;SDS011;7202;50.718;7.072;2023-04-23T13:55:58;2.50;;;1.60;;
14235;SDS011;7202;50.718;7.072;2023-04-23T13:58:26;2.58;;;1.90;;
14235;SDS011;7202;50.718;7.072;2023-04-23T14:00:55;3.28;;;2.00;;
14235;SDS011;7202;50.718;7.072;2023-04-23T14:03:24;3.92;;;1.90;;
14235;SDS011;7202;50.718;7.072;2023-04-23T14:05:52;2.83;;;1.80;;
14235;SDS011;7202;50.718;7.072;2023-04-23T14:08:22;3.80;;;1.98;;
14235;SDS011;7202;50.718;7.072;2023-04-23T14:10:51;4.38;;;2.17;;
14235;SDS011;7202;50.718;7.072;2023-04-23T14:13:20;3.35;;;2.20;;
14235;SDS011;7202;50.718;7.072;2023-04-23T14:15:49;3.78;;;2.10;;
14235;SDS011;7202;50.718;7.072;2023-04-23T14:18:18;3.38;;;2.10;;
14235;SDS011;7202;50.718;7.072;2023-04-23T14:20:47;3.80;;;2.22;;
14235;SDS011;7202;50.718;7.072;2023-04-23T14:23:38;3.00;;;2.03;;
14235;SDS011;7202;50.718;7.072;2023-04-23T14:26:19;5.63;;;2.50;;
14235;SDS011;7202;50.718;7.072;2023-04-23T14:28:55;3.95;;;2.50;;
14235;SDS011;7202;50.718;7.072;2023-04-23T14:31:24;3.88;;;2.88;;
14235;SDS011;7202;50.718;7.072;2023-04-23T14:33:53;5.07;;;3.15;;
14235;SDS011;7202;50.718;7.072;2023-04-23T14:36:24;3.50;;;2.88;;
14235;SDS011;7202;50.718;7.072;2023-04-23T14:38:54;4.45;;;2.85;;
14235;SDS011;7202;50.718;7.072;2023-04-23T14:41:24;3.65;;;2.55;;
14235;SDS011;7202;50.718;7.072;2023-04-23T14:43:54;4.22;;;2.58;;
14235;SDS011;7202;50.718;7.072;2023-04-23T14:46:23;3.83;;;2.55;;
14235;SDS011;7202;50.718;7.072;2023-04-23T14:48:52;4.35;;;2.63;;
14235;SDS011;7202;50.718;7.072;2023-04-23T14:51:20;3.28;;;2.10;;
14235;SDS011;7202;50.718;7.072;2023-04-23T14:53:49;5.53;;;2.50;;
14235;SDS011;7202;50.718;7.072;2023-04-23T14:56:23;4.80;;;2.53;;
14235;SDS011;7202;50.718;7.072;2023-04-23T14:58:53;3.70;;;2.33;;
14235;SDS011;7202;50.718;7.072;2023-04-23T15:01:23;2.20;;;2.00;;
14235;SDS011;7202;50.718;7.072;2023-04-23T15:03:52;3.50;;;2.25;;
14235;SDS011;7202;50.718;7.072;2023-04-23T15:06:20;2.45;;;2.08;;
14235;SDS011;7202;50.718;7.072;2023-04-23T15:08:49;2.75;;;2.10;;
14235;SDS011;7202;50.718;7.072;2023-04-23T15:11:18;3.08;;;2.25;;